Time;durP1;ratioP1;P1;durP2;ratioP2;P2;SDS_P1;SDS_P2;PMS_P1;PMS_P2;Temp;Humidity;BMP_temperature;BMP_pressure;BME280_temperature;BME280_humidity;BME280_pressure;Samples;Min_cycle;Max_cycle;Signal;HPM_P1;HPM_P2
2021/08/10 00:00:42;;;;;;;6.35;4.60;;;22.70;61.20;;;;;;3133253;28;20498;-77
2021/08/10 00:02:13;;;;;;;7.43;4.97;;;22.70;61.10;;;;;;3134680;28;20107;-77
2021/08/10 00:03:45;;;;;;;7.55;4.95;;;22.70;61.20;;;;;;3134856;28;20261;-76
2021/08/10 00:05:17;;;;;;;6.43;4.40;;;22.70;61.20;;;;;;3136627;28;20081;-77
2021/08/10 00:06:48;;;;;;;6.72;4.70;;;22.70;61.20;;;;;;3138714;28;20567;-77
2021/08/10 00:08:21;;;;;;;6.70;4.70;;;22.70;61.20;;;;;;3145865;28;20512;-77
2021/08/10 00:09:53;;;;;;;6.13;4.45;;;22.70;61.20;;;;;;3146316;28;20044;-77
2021/08/10 00:11:25;;;;;;;7.82;4.65;;;22.70;61.20;;;;;;3146156;28;20048;-77
2021/08/10 00:12:56;;;;;;;6.32;4.60;;;22.70;61.20;;;;;;3146398;28;20162;-77
2021/08/10 00:14:28;;;;;;;7.18;5.13;;;22.70;61.20;;;;;;3146084;28;20060;-77
2021/08/10 00:16:00;;;;;;;6.32;4.65;;;22.70;61.20;;;;;;3146144;28;20166;-77
2021/08/10 00:17:32;;;;;;;6.75;4.80;;;22.70;61.10;;;;;;3146711;28;20048;-76
2021/08/10 00:19:03;;;;;;;7.18;4.85;;;22.70;61.10;;;;;;3146880;28;20049;-77
2021/08/10 00:20:35;;;;;;;7.32;4.65;;;22.70;61.10;;;;;;3146433;28;20117;-77
2021/08/10 00:22:07;;;;;;;6.55;4.72;;;22.70;61.20;;;;;;3146894;28;20048;-78
2021/08/10 00:23:40;;;;;;;7.35;4.63;;;22.70;61.20;;;;;;3146655;28;20052;-77
2021/08/10 00:25:12;;;;;;;6.38;4.75;;;22.60;61.10;;;;;;3137493;28;20048;-77
2021/08/10 00:26:44;;;;;;;5.88;4.60;;;22.60;61.10;;;;;;3140853;28;20059;-77
2021/08/10 00:28:15;;;;;;;8.13;4.80;;;22.60;61.20;;;;;;3146623;28;20040;-77
2021/08/10 00:29:47;;;;;;;6.90;4.75;;;22.60;61.10;;;;;;3145872;28;20506;-77
2021/08/10 00:31:21;;;;;;;5.75;4.50;;;22.60;61.10;;;;;;3145152;28;20044;-77
2021/08/10 00:32:53;;;;;;;7.22;4.82;;;22.70;61.20;;;;;;3146525;28;20049;-77
2021/08/10 00:34:24;;;;;;;6.07;4.70;;;22.60;61.10;;;;;;3145716;28;20053;-77
2021/08/10 00:35:56;;;;;;;5.53;4.30;;;22.60;61.10;;;;;;3146143;28;20421;-76
2021/08/10 00:37:28;;;;;;;7.90;5.10;;;22.60;61.10;;;;;;3142207;28;20041;-77
2021/08/10 00:39:01;;;;;;;6.75;4.68;;;22.60;61.10;;;;;;3134470;28;20053;-76
2021/08/10 00:40:33;;;;;;;6.57;4.65;;;22.60;61.10;;;;;;3133650;28;20095;-77
2021/08/10 00:42:05;;;;;;;7.45;4.97;;;22.60;61.10;;;;;;3134393;28;20045;-77
2021/08/10 00:43:37;;;;;;;5.93;4.37;;;22.60;61.10;;;;;;3134606;28;20055;-76
2021/08/10 00:45:10;;;;;;;6.28;4.57;;;22.60;61.00;;;;;;3132651;28;20295;-77
2021/08/10 00:46:41;;;;;;;5.90;4.47;;;22.60;61.10;;;;;;3134000;28;20123;-77
2021/08/10 00:48:16;;;;;;;6.13;4.60;;;22.60;61.70;;;;;;3133961;28;20066;-76
2021/08/10 00:49:48;;;;;;;6.65;4.70;;;22.60;61.10;;;;;;3133467;28;20044;-77
2021/08/10 00:51:19;;;;;;;7.50;4.65;;;22.60;61.10;;;;;;3133504;28;20053;-77
2021/08/10 00:52:51;;;;;;;6.50;4.85;;;22.60;61.00;;;;;;3133639;28;20382;-77
2021/08/10 00:54:24;;;;;;;6.07;4.60;;;22.60;61.10;;;;;;3132934;28;20049;-77
2021/08/10 00:55:57;;;;;;;7.63;4.53;;;22.60;61.10;;;;;;3133861;28;20452;-76
2021/08/10 00:57:28;;;;;;;;;;;22.60;61.00;;;;;;3134902;28;20107;-77
2021/08/10 00:59:00;;;;;;;5.93;4.72;;;22.60;61.00;;;;;;3133866;28;19921;-77
2021/08/10 01:00:32;;;;;;;7.35;4.88;;;22.60;61.00;;;;;;3132540;28;20087;-76
2021/08/10 01:02:04;;;;;;;7.30;4.32;;;22.60;61.00;;;;;;3133497;28;20056;-77
2021/08/10 01:03:36;;;;;;;6.47;4.35;;;22.60;61.10;;;;;;3133569;28;20044;-77
2021/08/10 01:05:09;;;;;;;6.90;4.53;;;22.60;61.10;;;;;;3134564;28;20421;-78
2021/08/10 01:06:47;;;;;;;6.03;4.47;;;22.60;61.10;;;;;;3139770;28;20057;-77
2021/08/10 01:08:25;;;;;;;5.88;4.28;;;22.50;61.00;;;;;;3143039;28;20048;-78
2021/08/10 01:10:02;;;;;;;6.00;4.40;;;22.50;61.00;;;;;;3144954;28;20060;-77
2021/08/10 01:11:37;;;;;;;7.05;4.72;;;22.60;61.10;;;;;;3141644;28;20436;-77
2021/08/10 01:13:11;;;;;;;6.57;4.72;;;22.50;61.10;;;;;;3145795;28;20136;-77
2021/08/10 01:14:47;;;;;;;6.10;4.32;;;22.50;61.10;;;;;;3140408;28;20486;-77
2021/08/10 01:16:25;;;;;;;6.55;4.70;;;22.50;61.00;;;;;;3143217;28;20048;-76
2021/08/10 01:17:59;;;;;;;5.95;4.60;;;22.50;61.10;;;;;;3145630;28;20051;-77
2021/08/10 01:19:45;;;;;;;6.35;4.40;;;22.50;61.10;;;;;;3141937;28;20094;-77
2021/08/10 01:21:19;;;;;;;5.53;4.10;;;22.50;61.10;;;;;;3132801;28;20053;-77
2021/08/10 01:22:53;;;;;;;5.97;4.35;;;22.50;61.10;;;;;;3133969;28;20049;-77
2021/08/10 01:24:28;;;;;;;5.90;4.65;;;22.50;61.10;;;;;;3130094;28;20198;-77
2021/08/10 01:26:05;;;;;;;5.40;4.28;;;22.50;61.10;;;;;;3125269;28;20049;-77
2021/08/10 01:27:47;;;;;;;6.32;4.20;;;22.50;61.10;;;;;;3133419;28;20106;-78
2021/08/10 01:29:21;;;;;;;5.75;4.53;;;22.50;61.10;;;;;;3132621;28;20143;-77
2021/08/10 01:31:00;;;;;;;5.75;4.22;;;22.50;61.10;;;;;;3139176;28;20052;-77
2021/08/10 01:32:33;;;;;;;6.45;4.40;;;22.50;61.10;;;;;;3145809;28;20052;-78
2021/08/10 01:34:10;;;;;;;6.95;4.43;;;22.50;61.10;;;;;;3145376;28;20082;-77
2021/08/10 01:35:42;;;;;;;6.03;4.40;;;22.50;61.20;;;;;;3126876;28;20084;-78
2021/08/10 01:37:15;;;;;;;6.03;4.40;;;22.50;61.10;;;;;;3131951;28;20114;-77
2021/08/10 01:38:49;;;;;;;5.53;4.35;;;22.50;61.10;;;;;;3133984;28;20103;-77
2021/08/10 01:40:20;;;;;;;5.35;4.00;;;22.40;61.10;;;;;;3132395;28;20491;-77
2021/08/10 01:41:52;;;;;;;6.00;4.18;;;22.40;61.10;;;;;;3131594;28;20651;-77
2021/08/10 01:43:24;;;;;;;6.05;4.22;;;22.40;61.10;;;;;;3133317;28;20064;-77
2021/08/10 01:44:56;;;;;;;5.18;3.80;;;22.40;61.10;;;;;;3131493;28;20041;-77
2021/08/10 01:46:28;;;;;;;5.38;4.00;;;22.40;61.00;;;;;;3144464;28;20128;-77
2021/08/10 01:48:01;;;;;;;5.82;3.85;;;22.40;61.10;;;;;;3146527;28;20048;-77
2021/08/10 01:49:32;;;;;;;5.28;3.97;;;22.40;61.10;;;;;;3145619;28;20048;-77
2021/08/10 01:51:03;;;;;;;4.93;3.85;;;22.40;61.00;;;;;;3144978;28;20045;-77
2021/08/10 01:52:35;;;;;;;5.70;3.70;;;22.40;61.10;;;;;;3145301;28;20510;-77
2021/08/10 01:54:09;;;;;;;4.68;4.00;;;22.40;61.10;;;;;;3145425;28;20579;-77
2021/08/10 01:55:41;;;;;;;5.22;3.80;;;22.30;61.00;;;;;;3145411;28;20049;-78
2021/08/10 01:57:12;;;;;;;7.78;4.45;;;22.40;61.10;;;;;;3145463;28;20099;-77
2021/08/10 01:58:43;;;;;;;5.20;3.97;;;22.40;61.20;;;;;;3145668;28;20049;-77
2021/08/10 02:00:16;;;;;;;6.45;3.88;;;22.40;61.10;;;;;;3144074;28;20105;-77
2021/08/10 02:01:47;;;;;;;7.70;3.67;;;22.40;61.10;;;;;;3145544;28;20052;-78
2021/08/10 02:03:20;;;;;;;5.20;3.72;;;22.40;61.10;;;;;;3145773;28;20044;-77
2021/08/10 02:04:52;;;;;;;5.95;3.55;;;22.30;61.00;;;;;;3140009;28;20132;-77
2021/08/10 02:06:24;;;;;;;5.38;3.67;;;22.40;61.10;;;;;;3133279;28;20057;-77
2021/08/10 02:07:56;;;;;;;5.67;3.70;;;22.40;61.10;;;;;;3132724;28;20087;-77
2021/08/10 02:09:28;;;;;;;6.30;4.05;;;22.40;61.10;;;;;;3132593;28;20296;-77
2021/08/10 02:10:59;;;;;;;5.13;3.67;;;22.40;61.10;;;;;;3134202;28;20053;-77
2021/08/10 02:12:32;;;;;;;4.47;3.28;;;22.40;61.10;;;;;;3146404;28;20049;-77
2021/08/10 02:14:04;;;;;;;5.38;3.90;;;22.40;61.10;;;;;;3145511;28;20461;-77
2021/08/10 02:15:36;;;;;;;5.28;3.60;;;22.30;61.10;;;;;;3132512;28;20106;-77
2021/08/10 02:17:08;;;;;;;6.00;3.92;;;22.40;61.10;;;;;;3132620;28;20107;-77
2021/08/10 02:18:41;;;;;;;5.10;3.50;;;22.30;61.00;;;;;;3133137;28;20060;-77
2021/08/10 02:20:13;;;;;;;5.20;3.83;;;22.40;61.10;;;;;;3127686;28;20060;-77
2021/08/10 02:21:46;;;;;;;5.05;3.88;;;22.30;61.10;;;;;;3120643;28;20046;-77
2021/08/10 02:23:17;;;;;;;4.78;3.67;;;22.30;61.10;;;;;;3120533;28;20324;-77
2021/08/10 02:24:50;;;;;;;4.50;3.33;;;22.30;61.10;;;;;;3123966;28;20486;-77
2021/08/10 02:26:22;;;;;;;4.15;3.50;;;22.30;61.10;;;;;;3130232;28;20046;-76
2021/08/10 02:27:54;;;;;;;4.43;3.17;;;22.30;61.10;;;;;;3133030;28;20478;-76
2021/08/10 02:29:28;;;;;;;4.65;3.60;;;22.30;61.10;;;;;;3132641;28;20056;-76
2021/08/10 02:31:00;;;;;;;4.72;3.70;;;22.30;61.10;;;;;;3132440;28;20521;-77
2021/08/10 02:32:32;;;;;;;4.38;3.45;;;22.30;61.10;;;;;;3133019;28;20052;-77
2021/08/10 02:34:05;;;;;;;4.93;3.25;;;22.30;61.10;;;;;;3132868;28;20052;-77
2021/08/10 02:35:37;;;;;;;5.03;3.42;;;22.30;61.10;;;;;;3131699;28;20053;-77
2021/08/10 02:37:08;;;;;;;4.15;3.17;;;22.30;61.10;;;;;;3132546;28;20140;-77
2021/08/10 02:38:42;;;;;;;4.70;3.20;;;22.30;61.10;;;;;;3133052;28;20048;-77
2021/08/10 02:40:15;;;;;;;4.43;3.30;;;22.30;61.10;;;;;;3132039;28;20053;-77
2021/08/10 02:41:47;;;;;;;4.57;3.17;;;22.30;61.10;;;;;;3133160;28;20052;-78
2021/08/10 02:43:21;;;;;;;4.57;3.33;;;22.30;61.10;;;;;;3132809;28;20123;-77
2021/08/10 02:44:53;;;;;;;5.13;2.90;;;22.30;61.10;;;;;;3132266;28;20053;-76
2021/08/10 02:46:24;;;;;;;4.60;3.20;;;22.20;61.00;;;;;;3130553;28;20052;-77
2021/08/10 02:47:57;;;;;;;3.95;3.10;;;22.30;61.10;;;;;;3133012;28;20061;-76
2021/08/10 02:49:30;;;;;;;5.03;3.50;;;22.20;61.10;;;;;;3132203;28;20057;-76
2021/08/10 02:51:02;;;;;;;4.22;2.97;;;22.20;61.00;;;;;;3132134;28;20049;-76
2021/08/10 02:52:33;;;;;;;4.00;3.20;;;22.20;61.10;;;;;;3132572;28;20053;-76
2021/08/10 02:54:04;;;;;;;5.28;3.28;;;22.20;61.10;;;;;;3134259;28;20040;-76
2021/08/10 02:55:39;;;;;;;4.32;2.88;;;22.20;61.10;;;;;;3134414;28;20139;-77
2021/08/10 02:57:15;;;;;;;4.20;3.20;;;22.20;61.20;;;;;;3135415;28;20425;-76
2021/08/10 02:58:48;;;;;;;3.33;2.83;;;22.20;61.10;;;;;;3135163;28;20060;-76
2021/08/10 03:00:20;;;;;;;3.35;2.97;;;22.20;61.20;;;;;;3135633;28;20506;-76
2021/08/10 03:01:56;;;;;;;4.82;3.10;;;22.20;61.10;;;;;;3147554;28;20078;-77
2021/08/10 03:03:28;;;;;;;3.85;3.00;;;22.10;61.10;;;;;;3147349;28;20476;-77
2021/08/10 03:05:03;;;;;;;3.42;2.70;;;22.20;61.10;;;;;;3138714;28;20053;-77
2021/08/10 03:06:35;;;;;;;3.97;3.00;;;22.20;61.10;;;;;;3122631;28;20114;-77
2021/08/10 03:08:08;;;;;;;5.30;3.00;;;22.20;61.10;;;;;;3132245;28;20103;-77
2021/08/10 03:09:40;;;;;;;3.30;2.78;;;22.20;61.10;;;;;;3135165;28;20045;-77
2021/08/10 03:11:11;;;;;;;3.50;2.85;;;22.20;61.10;;;;;;3134395;28;20044;-76
2021/08/10 03:12:46;;;;;;;3.67;3.00;;;22.20;61.20;;;;;;3135072;28;20053;-76
2021/08/10 03:14:18;;;;;;;3.58;2.65;;;22.20;61.20;;;;;;3136004;28;20059;-77
2021/08/10 03:15:51;;;;;;;5.03;3.13;;;22.10;61.10;;;;;;3140778;28;20093;-77
2021/08/10 03:17:23;;;;;;;3.50;2.60;;;22.20;61.10;;;;;;3135162;28;20056;-76
2021/08/10 03:18:55;;;;;;;4.35;3.00;;;22.10;61.10;;;;;;3134747;28;20061;-76
2021/08/10 03:20:28;;;;;;;3.35;2.58;;;22.10;61.10;;;;;;3133680;28;20110;-76
2021/08/10 03:22:00;;;;;;;3.47;2.83;;;22.10;61.10;;;;;;3134774;28;20053;-77
2021/08/10 03:23:34;;;;;;;3.13;2.58;;;22.20;61.20;;;;;;3129222;28;20054;-76
2021/08/10 03:25:06;;;;;;;3.50;2.83;;;22.10;61.10;;;;;;3126963;28;20384;-76
2021/08/10 03:26:38;;;;;;;3.45;2.70;;;22.10;61.10;;;;;;3122439;28;20049;-76
2021/08/10 03:28:09;;;;;;;4.03;2.95;;;22.10;61.10;;;;;;3122230;28;20049;-76
2021/08/10 03:29:41;;;;;;;4.63;2.65;;;22.10;61.00;;;;;;3122370;28;20426;-76
2021/08/10 03:31:13;;;;;;;4.32;2.80;;;22.10;61.00;;;;;;3121220;28;20042;-76
2021/08/10 03:32:45;;;;;;;3.20;2.47;;;22.10;61.00;;;;;;3122269;28;20045;-76
2021/08/10 03:34:17;;;;;;;3.50;2.40;;;22.10;61.10;;;;;;3121597;28;20195;-77
2021/08/10 03:35:51;;;;;;;3.67;2.70;;;22.10;61.10;;;;;;3126801;28;20133;-76
2021/08/10 03:37:23;;;;;;;2.85;2.35;;;22.10;61.10;;;;;;3130431;28;20041;-77
2021/08/10 03:38:56;;;;;;;3.03;2.47;;;22.10;61.10;;;;;;3122208;28;20041;-76
2021/08/10 03:40:27;;;;;;;;;;;22.10;61.10;;;;;;3122167;28;20458;-77
2021/08/10 03:41:59;;;;;;;3.28;2.50;;;22.10;61.00;;;;;;3122395;28;20035;-77
2021/08/10 03:43:31;;;;;;;4.05;2.53;;;22.10;61.00;;;;;;3122431;28;20068;-77
2021/08/10 03:45:03;;;;;;;2.58;2.30;;;22.10;61.00;;;;;;3121254;28;20160;-77
2021/08/10 03:46:35;;;;;;;2.92;2.22;;;22.10;61.70;;;;;;3121544;28;20054;-78
2021/08/10 03:48:06;;;;;;;2.70;2.35;;;22.10;61.10;;;;;;3122251;28;20060;-77
2021/08/10 03:49:38;;;;;;;2.80;2.30;;;22.10;61.00;;;;;;3121566;28;20060;-77
2021/08/10 03:51:11;;;;;;;3.08;2.53;;;22.10;61.00;;;;;;3121572;28;20438;-77
2021/08/10 03:52:43;;;;;;;3.35;2.40;;;22.10;61.00;;;;;;3122550;28;20053;-76
2021/08/10 03:54:14;;;;;;;3.20;2.50;;;22.10;61.10;;;;;;3121237;28;20060;-76
2021/08/10 03:55:47;;;;;;;3.80;2.33;;;22.00;61.00;;;;;;3122131;28;20054;-76
2021/08/10 03:57:19;;;;;;;3.05;2.42;;;22.10;61.10;;;;;;3121943;28;20422;-76
2021/08/10 03:58:51;;;;;;;3.72;2.53;;;22.00;61.00;;;;;;3122713;28;20108;-76
2021/08/10 04:00:23;;;;;;;3.53;2.50;;;22.00;61.00;;;;;;3123346;28;20057;-76
2021/08/10 04:01:53;;;;;;;3.28;2.13;;;22.00;61.00;;;;;;3133845;28;20461;-76
2021/08/10 04:03:30;;;;;;;4.00;2.50;;;22.10;61.00;;;;;;3134577;28;20119;-77
2021/08/10 04:05:02;;;;;;;2.95;2.45;;;22.30;60.30;;;;;;3129137;28;20056;-77
2021/08/10 04:06:35;;;;;;;3.45;2.60;;;22.40;60.20;;;;;;3133872;28;20118;-77
2021/08/10 04:08:09;;;;;;;3.50;2.55;;;22.40;60.30;;;;;;3134336;28;20053;-77
2021/08/10 04:09:42;;;;;;;3.35;2.50;;;22.50;60.00;;;;;;3138535;28;20055;-77
2021/08/10 04:11:17;;;;;;;2.78;2.22;;;22.60;59.60;;;;;;3146453;28;20037;-76
2021/08/10 04:12:49;;;;;;;2.60;2.10;;;22.70;59.20;;;;;;3146650;28;20049;-77
2021/08/10 04:14:21;;;;;;;5.18;2.53;;;22.80;59.00;;;;;;3143920;28;20048;-77
2021/08/10 04:15:53;;;;;;;3.10;2.10;;;22.90;58.80;;;;;;3133452;28;20466;-77
2021/08/10 04:17:25;;;;;;;3.20;2.17;;;23.00;58.60;;;;;;3134695;28;20296;-77
2021/08/10 04:18:56;;;;;;;3.20;1.97;;;23.10;58.50;;;;;;3134564;28;20140;-76
2021/08/10 04:20:28;;;;;;;3.30;2.25;;;23.10;58.50;;;;;;3133055;28;20303;-77
2021/08/10 04:22:01;;;;;;;3.75;2.30;;;23.10;58.20;;;;;;3134230;28;20053;-76
2021/08/10 04:23:33;;;;;;;2.90;2.20;;;23.20;58.10;;;;;;3132201;28;20076;-76
2021/08/10 04:25:06;;;;;;;2.88;2.42;;;23.20;57.90;;;;;;3133470;28;20091;-77
2021/08/10 04:26:37;;;;;;;2.70;2.13;;;23.30;57.80;;;;;;3133905;28;20064;-77
2021/08/10 04:28:10;;;;;;;2.58;2.10;;;23.40;57.70;;;;;;3134764;28;20094;-77
2021/08/10 04:29:41;;;;;;;2.88;2.20;;;23.40;57.70;;;;;;3132936;28;20052;-77
2021/08/10 04:31:15;;;;;;;2.42;1.85;;;23.40;57.60;;;;;;3132906;28;20480;-78
2021/08/10 04:32:46;;;;;;;2.55;2.10;;;23.40;57.50;;;;;;3134028;28;20293;-77
2021/08/10 04:34:18;;;;;;;2.42;2.00;;;23.40;57.50;;;;;;3134215;28;20045;-78
2021/08/10 04:35:50;;;;;;;3.30;2.30;;;23.40;57.50;;;;;;3126568;28;20057;-77
2021/08/10 04:37:23;;;;;;;3.55;2.13;;;23.40;57.50;;;;;;3121135;28;20049;-76
2021/08/10 04:38:55;;;;;;;2.45;2.15;;;23.30;57.60;;;;;;3121957;28;20057;-77
2021/08/10 04:40:27;;;;;;;2.63;2.03;;;23.30;57.80;;;;;;3121202;28;20111;-77
2021/08/10 04:41:59;;;;;;;2.80;2.08;;;23.30;57.80;;;;;;3121371;28;20057;-76
2021/08/10 04:43:31;;;;;;;2.90;2.25;;;23.30;57.80;;;;;;3121741;28;20465;-76
2021/08/10 04:45:03;;;;;;;2.30;2.03;;;23.20;57.90;;;;;;3120499;28;20076;-77
2021/08/10 04:46:35;;;;;;;2.50;1.95;;;23.30;57.90;;;;;;3121136;28;20060;-77
2021/08/10 04:48:08;;;;;;;2.35;2.03;;;23.30;57.90;;;;;;3131516;28;20033;-77
2021/08/10 04:49:39;;;;;;;3.42;2.10;;;23.20;58.10;;;;;;3133570;28;20461;-77
2021/08/10 04:51:12;;;;;;;3.65;2.13;;;23.10;58.30;;;;;;3133350;28;20094;-77
2021/08/10 04:52:45;;;;;;;3.53;2.22;;;23.10;58.30;;;;;;3133563;28;20056;-77
2021/08/10 04:54:17;;;;;;;3.13;2.33;;;23.10;58.50;;;;;;3133357;28;20490;-77
2021/08/10 04:55:49;;;;;;;3.00;2.28;;;23.00;58.50;;;;;;3133072;28;20448;-77
2021/08/10 04:57:21;;;;;;;2.83;2.20;;;23.00;58.70;;;;;;3134181;28;20091;-77
2021/08/10 04:58:53;;;;;;;3.40;2.20;;;22.90;58.80;;;;;;3133754;28;20456;-77
2021/08/10 05:00:25;;;;;;;2.67;2.10;;;23.00;58.90;;;;;;3141987;28;20056;-77
2021/08/10 05:01:56;;;;;;;2.73;2.10;;;23.00;58.90;;;;;;3145669;28;20049;-77
2021/08/10 05:03:28;;;;;;;3.50;2.13;;;22.90;58.90;;;;;;3146187;28;20060;-77
2021/08/10 05:05:00;;;;;;;4.60;2.20;;;22.90;59.00;;;;;;3139646;28;20045;-77
2021/08/10 05:06:32;;;;;;;2.60;2.30;;;22.80;59.00;;;;;;3146083;28;20056;-77
2021/08/10 05:08:06;;;;;;;4.05;2.10;;;22.80;59.10;;;;;;3145242;28;20468;-76
2021/08/10 05:09:38;;;;;;;3.10;2.55;;;22.80;59.20;;;;;;3141479;28;20623;-76
2021/08/10 05:11:10;;;;;;;3.03;1.90;;;22.80;59.00;;;;;;3133394;28;20044;-77
2021/08/10 05:12:42;;;;;;;3.65;2.05;;;22.80;59.00;;;;;;3133600;28;20075;-77
2021/08/10 05:14:16;;;;;;;3.10;2.20;;;22.90;59.00;;;;;;3133901;28;20098;-78
2021/08/10 05:15:48;;;;;;;3.55;2.20;;;22.80;58.90;;;;;;3132848;28;20052;-77
2021/08/10 05:17:19;;;;;;;3.03;2.10;;;22.90;58.90;;;;;;3132437;28;20040;-77
2021/08/10 05:18:51;;;;;;;2.97;2.10;;;22.90;58.90;;;;;;3133836;28;20106;-77
2021/08/10 05:20:23;;;;;;;2.90;2.22;;;22.90;58.90;;;;;;3123141;28;20419;-77
2021/08/10 05:21:55;;;;;;;3.15;2.33;;;22.80;58.90;;;;;;3121229;28;20071;-77
2021/08/10 05:23:28;;;;;;;3.03;2.10;;;22.90;58.80;;;;;;3126421;28;20048;-77
2021/08/10 05:25:00;;;;;;;4.97;2.30;;;22.90;58.70;;;;;;3132604;28;20049;-77
2021/08/10 05:26:31;;;;;;;2.70;2.30;;;23.00;58.50;;;;;;3133680;28;20052;-77
2021/08/10 05:28:03;;;;;;;2.05;1.80;;;23.00;58.50;;;;;;3133539;28;20481;-77
2021/08/10 05:29:35;;;;;;;3.20;2.15;;;22.90;58.70;;;;;;3133371;28;20102;-76
2021/08/10 05:31:07;;;;;;;2.42;2.05;;;22.80;59.30;;;;;;3131979;28;20511;-76
2021/08/10 05:32:39;;;;;;;3.50;2.38;;;22.80;59.00;;;;;;3134099;28;20572;-77
2021/08/10 05:34:11;;;;;;;3.10;2.17;;;22.70;59.10;;;;;;3133278;28;20137;-77
2021/08/10 05:35:43;;;;;;;3.25;2.10;;;22.70;59.40;;;;;;3132780;28;20045;-77
2021/08/10 05:37:15;;;;;;;3.38;2.10;;;22.60;59.60;;;;;;3132669;28;20055;-77
2021/08/10 05:38:50;;;;;;;3.83;2.47;;;22.50;59.60;;;;;;3126911;28;20053;-76
2021/08/10 05:40:22;;;;;;;4.55;2.38;;;22.60;59.70;;;;;;3120844;28;20400;-76
2021/08/10 05:41:53;;;;;;;2.80;2.13;;;22.50;59.80;;;;;;3122015;28;20136;-77
2021/08/10 05:43:25;;;;;;;2.47;1.90;;;22.50;59.70;;;;;;3134118;28;20548;-77
2021/08/10 05:44:57;;;;;;;3.30;2.00;;;22.60;59.60;;;;;;3133377;28;20091;-77
2021/08/10 05:46:29;;;;;;;3.97;2.10;;;22.60;59.60;;;;;;3133099;28;20510;-77
2021/08/10 05:48:00;;;;;;;2.70;2.30;;;22.60;59.70;;;;;;3134218;28;20205;-77
2021/08/10 05:49:32;;;;;;;4.63;2.25;;;22.60;59.80;;;;;;3131128;28;20060;-77
2021/08/10 05:51:04;;;;;;;3.63;2.20;;;22.60;60.00;;;;;;3144842;28;20055;-77
2021/08/10 05:52:36;;;;;;;13.80;2.65;;;22.60;59.90;;;;;;3141475;28;20058;-77
2021/08/10 05:54:13;;;;;;;4.80;2.45;;;22.70;59.70;;;;;;3143435;28;20528;-78
2021/08/10 05:55:44;;;;;;;8.55;2.47;;;22.70;60.20;;;;;;3132874;28;20076;-77
2021/08/10 05:57:16;;;;;;;16.63;2.67;;;22.60;60.60;;;;;;3133586;28;20049;-77
2021/08/10 05:58:48;;;;;;;8.02;2.40;;;22.70;60.80;;;;;;3133209;28;20056;-76
2021/08/10 06:00:22;;;;;;;7.15;2.33;;;22.60;61.10;;;;;;3131567;28;20461;-77
2021/08/10 06:01:54;;;;;;;6.38;2.50;;;22.70;61.00;;;;;;3133220;28;20106;-76
2021/08/10 06:03:25;;;;;;;10.00;2.25;;;22.70;61.00;;;;;;3133314;28;20052;-76
2021/08/10 06:04:57;;;;;;;7.18;2.38;;;22.60;61.10;;;;;;3131971;28;20045;-76
2021/08/10 06:06:29;;;;;;;10.98;2.30;;;22.70;61.30;;;;;;3126134;28;20053;-76
2021/08/10 06:08:01;;;;;;;7.47;2.47;;;22.70;61.10;;;;;;3128303;28;20037;-76
2021/08/10 06:09:34;;;;;;;8.77;2.40;;;22.70;60.90;;;;;;3121159;28;20104;-77
2021/08/10 06:11:05;;;;;;;5.40;2.33;;;22.70;61.20;;;;;;3120964;28;20057;-77
2021/08/10 06:12:37;;;;;;;7.30;2.53;;;22.70;61.30;;;;;;3121016;28;20046;-77
2021/08/10 06:14:09;;;;;;;7.43;2.42;;;22.70;61.40;;;;;;3130233;28;20620;-76
2021/08/10 06:15:40;;;;;;;8.90;2.50;;;22.70;61.30;;;;;;3137179;28;20102;-76
2021/08/10 06:17:12;;;;;;;17.50;2.30;;;22.70;61.40;;;;;;3145765;28;20112;-76
2021/08/10 06:18:44;;;;;;;4.85;2.20;;;22.70;61.50;;;;;;3146371;28;20053;-75
2021/08/10 06:20:18;;;;;;;5.72;2.30;;;22.70;61.50;;;;;;3136168;28;20065;-76
2021/08/10 06:21:54;;;;;;;4.07;2.10;;;22.70;61.50;;;;;;3133504;28;20123;-76
2021/08/10 06:23:40;;;;;;;6.30;2.42;;;22.70;61.60;;;;;;3133183;28;20128;-76
2021/08/10 06:25:21;;;;;;;3.30;2.20;;;22.70;61.80;;;;;;3123263;28;20080;-76
2021/08/10 06:26:56;;;;;;;5.22;2.13;;;22.70;61.50;;;;;;3133742;28;20126;-76
2021/08/10 06:28:39;;;;;;;8.48;2.20;;;22.80;61.50;;;;;;3133832;28;20583;-76
2021/08/10 06:30:14;;;;;;;5.93;2.30;;;22.70;61.40;;;;;;3130959;28;20088;-76
2021/08/10 06:31:46;;;;;;;4.20;2.22;;;22.80;61.20;;;;;;3135615;28;20052;-77
2021/08/10 06:33:26;;;;;;;3.53;2.23;;;22.80;61.20;;;;;;3136361;28;20128;-76
2021/08/10 06:35:09;;;;;;;6.75;2.33;;;22.80;61.20;;;;;;3134703;28;20065;-77
2021/08/10 06:36:54;;;;;;;4.63;2.38;;;22.80;61.00;;;;;;3124257;28;20164;-76
2021/08/10 06:38:32;;;;;;;7.68;2.40;;;22.90;61.00;;;;;;3126841;28;20423;-77
2021/08/10 06:40:07;;;;;;;6.18;2.10;;;22.90;60.90;;;;;;3125729;28;20111;-77
2021/08/10 06:41:53;;;;;;;6.00;2.45;;;22.80;61.10;;;;;;3134479;28;20048;-77
2021/08/10 06:43:28;;;;;;;6.72;2.33;;;22.80;61.20;;;;;;3136474;28;20059;-76
2021/08/10 06:45:00;;;;;;;4.85;2.22;;;22.80;61.50;;;;;;3134988;28;20245;-76
2021/08/10 06:48:47;;;;;;;4.07;2.35;;;22.80;61.30;;;;;;3134829;28;20060;-77
2021/08/10 06:50:24;;;;;;;4.20;2.35;;;22.80;61.10;;;;;;3135330;28;20045;-77
2021/08/10 06:51:56;;;;;;;4.40;2.67;;;22.80;61.20;;;;;;3136410;28;20052;-77
2021/08/10 06:53:28;;;;;;;4.05;2.25;;;22.80;61.20;;;;;;3135623;28;20457;-76
2021/08/10 06:55:05;;;;;;;4.43;2.40;;;22.80;61.10;;;;;;3130479;28;20042;-77
2021/08/10 06:57:11;;;;;;;6.55;2.40;;;22.70;61.20;;;;;;3123410;28;20437;-76
2021/08/10 06:58:50;;;;;;;5.78;2.67;;;22.80;61.30;;;;;;3133917;28;20053;-77
2021/08/10 07:00:27;;;;;;;11.32;2.78;;;22.80;61.20;;;;;;3125451;28;20183;-76
2021/08/10 07:01:59;;;;;;;5.50;2.30;;;22.70;61.60;;;;;;3133081;28;20049;-76
2021/08/10 07:03:31;;;;;;;6.00;2.70;;;22.80;61.90;;;;;;3133939;28;20052;-76
2021/08/10 07:05:17;;;;;;;4.47;2.30;;;22.80;62.80;;;;;;3130061;28;20049;-76
2021/08/10 07:06:58;;;;;;;7.55;2.60;;;22.70;63.00;;;;;;3133840;28;20041;-77
2021/08/10 07:08:31;;;;;;;6.65;2.45;;;22.70;62.70;;;;;;3135175;28;20053;-77
2021/08/10 07:10:20;;;;;;;6.78;2.50;;;22.80;62.50;;;;;;3132745;28;20048;-77
2021/08/10 07:11:58;;;;;;;5.65;2.50;;;22.70;62.50;;;;;;3141485;28;20054;-77
2021/08/10 07:13:46;;;;;;;13.48;2.58;;;22.70;62.90;;;;;;3134651;28;20049;-76
2021/08/10 07:15:18;;;;;;;5.53;2.30;;;22.70;62.40;;;;;;3126987;28;20032;-77
2021/08/10 07:16:56;;;;;;;6.28;2.40;;;22.80;62.00;;;;;;3135333;28;20056;-77
2021/08/10 07:18:31;;;;;;;4.60;2.70;;;22.80;61.90;;;;;;3135410;28;20887;-77
2021/08/10 07:20:03;;;;;;;3.40;2.33;;;22.70;61.80;;;;;;3133030;28;20411;-76
2021/08/10 07:21:44;;;;;;;10.20;2.70;;;22.80;61.80;;;;;;3131592;28;20654;-77
2021/08/10 07:23:27;;;;;;;7.30;2.50;;;22.80;61.60;;;;;;3135420;28;20280;-77
2021/08/10 07:25:04;;;;;;;6.30;3.20;;;22.80;61.50;;;;;;3135020;28;20102;-77
2021/08/10 07:26:37;;;;;;;8.98;2.55;;;22.70;61.40;;;;;;3129468;28;20520;-76
2021/08/10 07:28:12;;;;;;;4.97;2.85;;;22.80;61.40;;;;;;3132963;28;20633;-76
2021/08/10 07:30:06;;;;;;;7.28;2.78;;;22.80;61.40;;;;;;3135294;28;20057;-77
2021/08/10 07:31:40;;;;;;;5.93;2.50;;;22.80;61.20;;;;;;3147106;28;20570;-76
2021/08/10 07:33:12;;;;;;;7.72;2.63;;;22.80;61.40;;;;;;3141313;28;20045;-76
2021/08/10 07:34:57;;;;;;;;;;;;;;;;;;;;;
2021/08/10 07:36:35;;;;;;;6.85;2.70;;;22.60;61.50;;;;;;3134806;28;20061;-77
2021/08/10 07:39:57;;;;;;;5.13;2.60;;;22.60;61.30;;;;;;3107668;28;20507;-76
2021/08/10 07:41:37;;;;;;;10.43;2.65;;;22.60;61.20;;;;;;3123956;28;20056;-76
2021/08/10 07:45:19;;;;;;;4.43;2.75;;;22.60;61.30;;;;;;3145260;28;20070;-76
2021/08/10 07:48:51;;;;;;;5.78;2.40;;;22.70;60.70;;;;;;3132675;28;20076;-77
2021/08/10 07:56:04;;;;;;;5.65;2.30;;;22.60;61.20;;;;;;3133357;28;20053;-77
2021/08/10 07:57:47;;;;;;;4.80;2.40;;;22.50;61.10;;;;;;3135104;28;20360;-77
2021/08/10 07:59:25;;;;;;;3.90;2.38;;;22.50;61.00;;;;;;3135524;28;20088;-77
2021/08/10 08:01:04;;;;;;;4.32;2.17;;;22.50;61.10;;;;;;3141632;28;20044;-77
2021/08/10 08:02:41;;;;;;;4.13;2.20;;;22.50;61.10;;;;;;3147086;28;20090;-76
2021/08/10 08:04:23;;;;;;;5.10;2.20;;;22.60;61.10;;;;;;3146634;28;20053;-76
2021/08/10 08:06:01;;;;;;;6.60;2.67;;;22.50;61.00;;;;;;3146408;28;20084;-76
2021/08/10 08:09:34;;;;;;;3.65;2.40;;;22.70;60.70;;;;;;3134729;28;20048;-76
2021/08/10 08:11:11;;;;;;;5.63;2.60;;;22.70;60.30;;;;;;3147323;28;20044;-77
2021/08/10 08:14:43;;;;;;;4.18;2.47;;;22.80;60.10;;;;;;3119411;28;20041;-76
2021/08/10 08:16:20;;;;;;;5.07;2.42;;;22.90;60.00;;;;;;3130177;28;20053;-76
2021/08/10 08:17:55;;;;;;;4.85;2.55;;;22.90;60.00;;;;;;3134496;28;20099;-76
2021/08/10 08:19:36;;;;;;;4.38;2.50;;;22.80;59.90;;;;;;3137042;28;20041;-76
2021/08/10 08:21:11;;;;;;;4.32;2.53;;;22.90;59.90;;;;;;3141311;28;20620;-77
2021/08/10 08:22:49;;;;;;;4.55;2.60;;;22.90;60.00;;;;;;3127525;28;20080;-76
2021/08/10 08:24:21;;;;;;;4.88;2.40;;;22.80;60.20;;;;;;3129361;28;20136;-77
2021/08/10 08:25:56;;;;;;;5.35;2.25;;;22.80;60.30;;;;;;3122420;28;20056;-77